Time;durP1;ratioP1;P1;durP2;ratioP2;P2;SDS_P1;SDS_P2;PMS_P1;PMS_P2;Temp;Humidity;BMP_temperature;BMP_pressure;BME280_temperature;BME280_humidity;BME280_pressure;Samples;Min_cycle;Max_cycle;Signal;HPM_P1;HPM_P2
2022/02/14 00:01:25;;;;;;;7.77;4.37;;;4.60;99.90;;;;;;5071907;28;20206;-85
2022/02/14 00:04:10;;;;;;;6.13;3.67;;;4.60;99.90;;;;;;5072068;28;20455;-84
2022/02/14 00:06:57;;;;;;;5.77;3.50;;;4.70;99.90;;;;;;5076061;28;20500;-85
2022/02/14 00:09:43;;;;;;;6.20;3.15;;;4.70;99.90;;;;;;5073065;28;20531;-84
2022/02/14 00:12:29;;;;;;;6.00;4.30;;;4.60;99.90;;;;;;5070916;28;20201;-84
2022/02/14 00:15:14;;;;;;;7.67;4.33;;;4.60;99.90;;;;;;5071604;28;20979;-85
2022/02/14 00:18:00;;;;;;;7.03;3.60;;;4.70;99.90;;;;;;5074949;28;20451;-84
2022/02/14 00:20:46;;;;;;;6.83;3.53;;;4.70;99.90;;;;;;5067681;28;20451;-84
2022/02/14 00:23:33;;;;;;;5.27;3.20;;;4.70;99.90;;;;;;5075281;28;20448;-84
2022/02/14 00:26:18;;;;;;;12.90;4.57;;;4.70;99.90;;;;;;5074504;28;20418;-84
2022/02/14 00:29:04;;;;;;;5.17;3.30;;;4.70;99.90;;;;;;5074827;28;20595;-84
2022/02/14 00:31:50;;;;;;;5.07;3.37;;;4.70;99.90;;;;;;5067765;28;21067;-84
2022/02/14 00:34:36;;;;;;;4.53;3.27;;;4.80;99.90;;;;;;5070029;28;20478;-85
2022/02/14 00:37:21;;;;;;;6.07;3.57;;;4.80;99.90;;;;;;5072758;28;20477;-85
2022/02/14 00:40:10;;;;;;;11.45;4.70;;;4.70;99.90;;;;;;5070761;28;20482;-84
2022/02/14 00:42:56;;;;;;;8.97;4.20;;;4.70;99.90;;;;;;5071039;28;20212;-85
2022/02/14 00:45:42;;;;;;;7.47;3.90;;;4.70;99.90;;;;;;5075248;28;20452;-84
2022/02/14 00:48:27;;;;;;;9.43;3.33;;;4.70;99.90;;;;;;5072694;28;20309;-84
2022/02/14 00:51:13;;;;;;;7.43;4.20;;;4.60;99.90;;;;;;5069725;28;20527;-84
2022/02/14 00:53:58;;;;;;;6.10;3.70;;;4.70;99.90;;;;;;5073024;28;20447;-84
2022/02/14 00:56:45;;;;;;;4.53;3.00;;;4.60;99.90;;;;;;5074081;28;20442;-84
2022/02/14 00:59:31;;;;;;;5.43;3.43;;;4.60;99.90;;;;;;5072627;28;20468;-83
2022/02/14 01:02:17;;;;;;;6.30;3.40;;;4.60;99.90;;;;;;5074684;28;21048;-85
2022/02/14 01:05:03;;;;;;;4.85;3.30;;;4.60;99.90;;;;;;5074190;28;20443;-85
2022/02/14 01:07:49;;;;;;;11.65;3.80;;;4.60;99.90;;;;;;5075579;28;20270;-84
2022/02/14 01:10:34;;;;;;;7.68;2.85;;;4.60;99.90;;;;;;5070850;28;20216;-85
2022/02/14 01:13:22;;;;;;;6.35;3.60;;;4.60;99.90;;;;;;5072689;28;20571;-85
2022/02/14 01:16:07;;;;;;;10.48;4.20;;;4.50;99.90;;;;;;5076392;28;20228;-85
2022/02/14 01:18:53;;;;;;;5.47;3.33;;;4.40;99.90;;;;;;5076087;28;20228;-85
2022/02/14 01:21:39;;;;;;;12.30;3.40;;;4.40;99.90;;;;;;5076492;28;20204;-84
2022/02/14 01:24:25;;;;;;;4.67;4.10;;;4.30;99.90;;;;;;5074029;28;20431;-85
2022/02/14 01:27:10;;;;;;;9.63;3.97;;;4.30;99.90;;;;;;5075689;28;20407;-84
2022/02/14 01:29:57;;;;;;;6.43;3.07;;;4.20;99.90;;;;;;5069565;28;20465;-85
2022/02/14 01:32:43;;;;;;;4.15;3.20;;;4.20;99.90;;;;;;5075057;28;20419;-85
2022/02/14 01:35:29;;;;;;;6.07;3.70;;;4.10;99.90;;;;;;5075313;28;20283;-83
2022/02/14 01:38:15;;;;;;;6.75;3.67;;;4.00;99.90;;;;;;5074051;28;20818;-84
2022/02/14 01:41:00;;;;;;;6.95;3.60;;;4.00;99.90;;;;;;5074059;28;20688;-85
2022/02/14 01:43:46;;;;;;;5.85;3.20;;;4.00;99.90;;;;;;5067241;28;20547;-85
2022/02/14 01:46:33;;;;;;;5.60;3.05;;;4.00;99.90;;;;;;5074275;28;20204;-85
2022/02/14 01:49:19;;;;;;;6.70;3.35;;;3.90;99.90;;;;;;5070753;28;20228;-85
2022/02/14 01:52:07;;;;;;;5.77;3.80;;;3.80;99.90;;;;;;5069934;28;20248;-85
2022/02/14 01:54:53;;;;;;;7.68;3.53;;;3.70;99.90;;;;;;5071134;28;20482;-85
2022/02/14 01:57:39;;;;;;;5.40;3.10;;;3.70;99.90;;;;;;5071451;28;20773;-84
2022/02/14 02:00:25;;;;;;;5.88;3.50;;;3.80;99.90;;;;;;5067881;28;20657;-85
2022/02/14 02:03:12;;;;;;;5.05;3.15;;;3.70;99.90;;;;;;5072298;28;20209;-83
2022/02/14 02:05:59;;;;;;;6.72;4.07;;;3.70;99.90;;;;;;5072631;28;20200;-84
2022/02/14 02:08:44;;;;;;;13.10;3.20;;;3.60;99.90;;;;;;5067710;28;20609;-85
2022/02/14 02:14:33;;;;;;;6.18;3.40;;;3.50;99.90;;;;;;5072373;28;20468;-85
2022/02/14 02:17:19;;;;;;;5.93;3.38;;;3.50;99.90;;;;;;5067614;28;20240;-83
2022/02/14 02:20:08;;;;;;;4.55;2.97;;;3.50;99.90;;;;;;5068606;28;20259;-85
2022/02/14 02:22:54;;;;;;;4.53;2.83;;;3.50;99.90;;;;;;5072230;28;20622;-84
2022/02/14 02:25:41;;;;;;;9.68;4.07;;;3.60;99.90;;;;;;5069047;28;20514;-85
2022/02/14 02:28:27;;;;;;;5.18;2.90;;;3.50;99.90;;;;;;5069913;28;20228;-83
2022/02/14 02:31:12;;;;;;;4.30;3.20;;;3.60;99.90;;;;;;5070512;28;20208;-85
2022/02/14 02:33:58;;;;;;;4.63;2.77;;;3.60;99.90;;;;;;5069420;28;20319;-85
2022/02/14 02:36:48;;;;;;;4.35;3.05;;;3.60;99.90;;;;;;5060528;28;20438;-85
2022/02/14 02:39:35;;;;;;;5.60;3.65;;;3.60;99.90;;;;;;5069819;28;20360;-84
2022/02/14 02:42:23;;;;;;;5.00;3.20;;;3.50;99.90;;;;;;5068481;28;20205;-85
2022/02/14 02:45:10;;;;;;;6.93;3.05;;;3.60;99.90;;;;;;5071130;28;20204;-84
2022/02/14 02:47:56;;;;;;;5.60;3.65;;;3.50;99.90;;;;;;5065360;28;20300;-85
2022/02/14 02:51:02;;;;;;;4.47;3.20;;;3.40;99.90;;;;;;5072274;28;20197;-84
2022/02/14 02:53:49;;;;;;;5.43;2.75;;;3.50;99.90;;;;;;5065032;28;20204;-83
2022/02/14 02:56:35;;;;;;;5.13;2.97;;;3.50;99.90;;;;;;5073454;28;20220;-84
2022/02/14 02:59:24;;;;;;;5.55;3.65;;;3.50;99.90;;;;;;5069447;28;20232;-84
2022/02/14 03:02:10;;;;;;;5.35;3.28;;;3.50;99.90;;;;;;5072830;28;20200;-84
2022/02/14 03:04:55;;;;;;;6.28;3.53;;;3.60;99.90;;;;;;5071992;28;20196;-85
2022/02/14 03:07:41;;;;;;;8.10;3.10;;;3.50;99.90;;;;;;5070610;28;21187;-84
2022/02/14 03:10:27;;;;;;;4.63;3.23;;;3.50;99.90;;;;;;5070707;28;20205;-84
2022/02/14 03:13:12;;;;;;;4.75;3.30;;;3.50;99.90;;;;;;5074491;28;20497;-84
2022/02/14 03:15:59;;;;;;;4.80;2.85;;;3.60;99.90;;;;;;5071035;28;20713;-84
2022/02/14 03:18:45;;;;;;;3.88;3.25;;;3.60;99.90;;;;;;5071602;28;20223;-83
2022/02/14 03:21:31;;;;;;;5.80;3.42;;;3.60;99.90;;;;;;5072297;28;20279;-84
2022/02/14 03:24:17;;;;;;;6.50;3.73;;;3.60;99.90;;;;;;5067483;28;20271;-84
2022/02/14 03:27:03;;;;;;;6.53;3.00;;;3.70;99.90;;;;;;5073941;28;20562;-84
2022/02/14 03:29:49;;;;;;;8.43;3.30;;;3.70;99.90;;;;;;5070316;28;20495;-84
2022/02/14 03:32:36;;;;;;;5.97;3.38;;;3.60;99.90;;;;;;5074774;28;20195;-83
2022/02/14 03:35:22;;;;;;;6.20;3.53;;;3.60;99.90;;;;;;5073794;28;20712;-84
2022/02/14 03:38:07;;;;;;;4.45;3.00;;;3.60;99.90;;;;;;5066591;28;20926;-83
2022/02/14 03:40:53;;;;;;;7.50;3.35;;;3.60;99.90;;;;;;5071350;28;20213;-84
2022/02/14 03:43:39;;;;;;;5.38;3.10;;;3.70;99.90;;;;;;5071811;28;20195;-84
2022/02/14 03:46:24;;;;;;;5.47;3.20;;;3.70;99.90;;;;;;5073076;28;20299;-84
2022/02/14 03:49:11;;;;;;;6.95;3.45;;;3.70;99.90;;;;;;5074083;28;20231;-84
2022/02/14 03:51:57;;;;;;;7.20;3.43;;;3.70;99.90;;;;;;5070766;28;20769;-84
2022/02/14 03:54:42;;;;;;;6.15;4.20;;;3.70;99.90;;;;;;5075575;28;20968;-83
2022/02/14 03:57:28;;;;;;;12.73;3.50;;;3.70;99.90;;;;;;5071565;28;20333;-85
2022/02/14 04:00:15;;;;;;;8.53;3.63;;;3.60;99.90;;;;;;5072952;28;20324;-85
2022/02/14 04:03:01;;;;;;;7.10;4.07;;;3.60;99.90;;;;;;5073955;28;20445;-83
2022/02/14 04:05:47;;;;;;;4.80;3.40;;;3.60;99.90;;;;;;5068598;28;20196;-83
2022/02/14 04:08:33;;;;;;;4.60;3.47;;;3.60;99.90;;;;;;5071679;28;20241;-84
2022/02/14 04:11:19;;;;;;;5.68;4.13;;;3.50;99.90;;;;;;5074654;28;20267;-84
2022/02/14 04:14:05;;;;;;;6.03;3.83;;;3.40;99.90;;;;;;5074989;28;20327;-84
2022/02/14 04:16:50;;;;;;;4.78;3.35;;;3.40;99.90;;;;;;5070266;28;20704;-85
2022/02/14 04:19:36;;;;;;;8.35;3.35;;;3.30;99.90;;;;;;5075007;28;20228;-85
2022/02/14 04:22:23;;;;;;;5.45;3.65;;;3.40;99.90;;;;;;5075456;28;20209;-84
2022/02/14 04:25:10;;;;;;;7.65;4.05;;;3.40;99.90;;;;;;5071911;28;20263;-84
2022/02/14 04:27:56;;;;;;;15.00;4.22;;;3.40;99.90;;;;;;5069364;28;20205;-84
2022/02/14 04:30:41;;;;;;;7.28;3.53;;;3.30;99.90;;;;;;5075155;28;20737;-85
2022/02/14 04:33:27;;;;;;;4.13;3.33;;;3.30;99.90;;;;;;5074712;28;20780;-84
2022/02/14 04:36:13;;;;;;;6.15;3.60;;;3.20;99.90;;;;;;5072415;28;20720;-84
2022/02/14 04:39:00;;;;;;;4.75;3.58;;;3.10;99.90;;;;;;5075697;28;20227;-85
2022/02/14 04:41:46;;;;;;;5.65;3.40;;;3.10;99.90;;;;;;5076052;28;20565;-83
2022/02/14 04:44:31;;;;;;;5.45;3.50;;;3.10;99.90;;;;;;5071664;28;20195;-85
2022/02/14 04:47:17;;;;;;;4.18;2.92;;;3.00;99.90;;;;;;5069422;28;20287;-85
2022/02/14 04:50:03;;;;;;;4.32;2.97;;;3.10;99.90;;;;;;5071886;28;20220;-85
2022/02/14 04:52:48;;;;;;;4.18;3.25;;;3.00;99.90;;;;;;5072885;28;20188;-84
2022/02/14 04:55:35;;;;;;;4.38;3.50;;;2.90;99.90;;;;;;5072233;28;20228;-84
2022/02/14 04:58:21;;;;;;;5.47;4.63;;;2.90;99.90;;;;;;5072804;28;20223;-84
2022/02/14 05:01:07;;;;;;;3.90;3.05;;;2.90;99.90;;;;;;5076721;28;20201;-85
2022/02/14 05:03:53;;;;;;;4.55;3.05;;;2.90;99.90;;;;;;5070577;28;20202;-84
2022/02/14 05:06:39;;;;;;;4.57;3.22;;;2.90;99.90;;;;;;5070346;28;20197;-84
2022/02/14 05:09:25;;;;;;;7.43;3.63;;;2.80;99.90;;;;;;5070186;28;20581;-84
2022/02/14 05:12:12;;;;;;;7.15;3.72;;;2.80;99.90;;;;;;5073746;28;20196;-85
2022/02/14 05:14:57;;;;;;;3.83;2.70;;;2.90;99.90;;;;;;5066449;28;20573;-84
2022/02/14 05:17:43;;;;;;;4.68;3.05;;;2.90;99.90;;;;;;5073108;28;20578;-85
2022/02/14 05:20:29;;;;;;;7.15;4.05;;;2.90;99.90;;;;;;5073937;28;20795;-84
2022/02/14 05:23:16;;;;;;;9.50;4.40;;;2.90;99.90;;;;;;5072345;28;20205;-85
2022/02/14 05:26:01;;;;;;;6.10;3.30;;;2.90;99.90;;;;;;5071794;28;20205;-85
2022/02/14 05:28:54;;;;;;;4.72;3.00;;;2.80;99.90;;;;;;5071045;28;20791;-85
2022/02/14 05:31:40;;;;;;;7.10;3.47;;;2.70;99.90;;;;;;5076895;28;20199;-85
2022/02/14 05:34:26;;;;;;;6.53;3.00;;;2.70;99.90;;;;;;5075102;28;20204;-84
2022/02/14 05:37:11;;;;;;;5.88;3.28;;;2.70;99.90;;;;;;5073204;28;20327;-85
2022/02/14 05:39:57;;;;;;;6.07;3.20;;;2.80;99.90;;;;;;5061623;28;20228;-84
2022/02/14 05:42:43;;;;;;;4.80;3.53;;;2.80;99.90;;;;;;5075512;28;20572;-85
2022/02/14 05:45:29;;;;;;;7.80;3.80;;;2.90;99.90;;;;;;5069511;28;20210;-85
2022/02/14 05:48:15;;;;;;;5.00;3.50;;;2.80;99.90;;;;;;5073011;28;20209;-84
2022/02/14 05:51:01;;;;;;;10.15;3.75;;;2.70;99.90;;;;;;5073306;28;20670;-85
2022/02/14 05:53:47;;;;;;;6.10;4.07;;;2.60;99.90;;;;;;5073661;28;20250;-84
2022/02/14 05:56:32;;;;;;;5.55;4.10;;;2.70;99.90;;;;;;5070321;28;20271;-84
2022/02/14 05:59:18;;;;;;;9.02;5.75;;;2.70;99.90;;;;;;5072858;28;20245;-86
2022/02/14 06:02:06;;;;;;;7.55;3.67;;;2.60;99.90;;;;;;5070490;28;20254;-84
2022/02/14 06:04:52;;;;;;;8.82;3.72;;;2.60;99.90;;;;;;5070535;28;20202;-85
2022/02/14 06:07:38;;;;;;;10.88;4.18;;;2.70;99.90;;;;;;5074924;28;20340;-85
2022/02/14 06:10:24;;;;;;;6.05;4.22;;;2.70;99.90;;;;;;5071113;28;20204;-84
2022/02/14 06:13:09;;;;;;;8.02;3.83;;;2.70;99.90;;;;;;5069835;28;20265;-85
2022/02/14 06:15:55;;;;;;;6.18;3.97;;;2.70;99.90;;;;;;5070098;28;20212;-84
2022/02/14 06:18:42;;;;;;;8.00;4.30;;;2.70;99.90;;;;;;5073024;28;20320;-85
2022/02/14 06:21:28;;;;;;;5.30;3.93;;;2.70;99.90;;;;;;5068557;28;20454;-85
2022/02/14 06:24:14;;;;;;;8.40;3.88;;;2.80;99.90;;;;;;5068744;28;20451;-83
2022/02/14 06:26:59;;;;;;;8.68;3.70;;;2.80;99.90;;;;;;5073581;28;20201;-84
2022/02/14 06:29:45;;;;;;;4.78;3.53;;;2.80;99.90;;;;;;5070216;28;20260;-84
2022/02/14 06:32:32;;;;;;;5.22;4.03;;;2.80;99.90;;;;;;5073262;28;20575;-84
2022/02/14 06:35:18;;;;;;;8.35;4.68;;;2.90;99.90;;;;;;5070634;28;20199;-84
2022/02/14 06:38:04;;;;;;;6.78;4.10;;;3.00;99.90;;;;;;5072990;28;20196;-84
2022/02/14 06:40:50;;;;;;;4.60;3.75;;;3.00;99.90;;;;;;5073601;28;20667;-85
2022/02/14 06:43:36;;;;;;;6.72;3.72;;;3.10;99.90;;;;;;5070400;28;20212;-84
2022/02/14 06:46:22;;;;;;;6.38;4.53;;;3.10;99.90;;;;;;5074097;28;20196;-85
2022/02/14 06:49:08;;;;;;;6.30;5.10;;;3.20;99.90;;;;;;5069877;28;20220;-84
2022/02/14 06:51:55;;;;;;;17.15;14.60;;;3.20;99.90;;;;;;5073830;28;20295;-85
2022/02/14 06:54:41;;;;;;;14.77;10.65;;;3.30;99.90;;;;;;5066240;28;20211;-84
2022/02/14 06:57:26;;;;;;;12.10;7.15;;;3.30;99.90;;;;;;5071160;28;20220;-84
2022/02/14 07:00:14;;;;;;;10.45;8.95;;;3.40;99.90;;;;;;5066258;28;20225;-83
2022/02/14 07:03:00;;;;;;;11.05;9.35;;;3.50;99.90;;;;;;5068150;28;20200;-85
2022/02/14 07:05:46;;;;;;;11.30;8.85;;;3.50;99.90;;;;;;5072785;28;20204;-85
2022/02/14 07:08:32;;;;;;;10.10;6.88;;;3.50;99.90;;;;;;5075143;28;20224;-85
2022/02/14 07:11:18;;;;;;;9.73;7.25;;;3.50;99.90;;;;;;5074771;28;20235;-85
2022/02/14 07:14:04;;;;;;;9.40;7.18;;;3.50;99.90;;;;;;5071961;28;20759;-85
2022/02/14 07:16:50;;;;;;;12.43;6.05;;;3.50;99.90;;;;;;5075321;28;20213;-86
2022/02/14 07:19:35;;;;;;;12.95;8.85;;;3.60;99.90;;;;;;5074049;28;20235;-85
2022/02/14 07:22:21;;;;;;;16.13;9.13;;;3.70;99.90;;;;;;5075127;28;20207;-85
2022/02/14 07:25:09;;;;;;;10.93;6.17;;;3.70;99.90;;;;;;5071083;28;20278;-85
2022/02/14 07:27:55;;;;;;;8.13;5.28;;;3.80;99.90;;;;;;5073879;28;20454;-85
2022/02/14 07:30:40;;;;;;;13.10;6.85;;;3.80;99.90;;;;;;5070386;28;20609;-86
2022/02/14 07:33:26;;;;;;;11.80;7.15;;;3.90;99.90;;;;;;5077192;28;20201;-85
2022/02/14 07:36:12;;;;;;;23.27;9.55;;;3.90;99.90;;;;;;5080165;28;20272;-85
2022/02/14 07:38:58;;;;;;;14.37;8.40;;;4.00;99.90;;;;;;5078388;28;20229;-85
2022/02/14 07:41:45;;;;;;;10.77;5.97;;;4.10;99.90;;;;;;5080110;28;20438;-85
2022/02/14 07:44:31;;;;;;;10.87;6.23;;;4.20;99.90;;;;;;5074081;28;20787;-86
2022/02/14 07:47:17;;;;;;;10.30;6.10;;;4.50;99.90;;;;;;5078000;28;20863;-85
2022/02/14 07:50:06;;;;;;;17.00;6.80;;;4.60;99.90;;;;;;5079487;28;20489;-85
2022/02/14 07:52:52;;;;;;;9.27;4.68;;;4.80;99.90;;;;;;5076924;28;20490;-84
2022/02/14 07:55:38;;;;;;;5.80;4.20;;;5.20;99.90;;;;;;5076778;28;20214;-84
2022/02/14 07:58:25;;;;;;;6.83;3.80;;;5.50;99.90;;;;;;5077803;28;20917;-84
2022/02/14 08:01:10;;;;;;;8.07;3.37;;;5.80;99.90;;;;;;5075990;28;20450;-84
2022/02/14 08:03:56;;;;;;;13.53;3.10;;;6.40;99.90;;;;;;5068504;28;20465;-85
2022/02/14 08:06:42;;;;;;;14.20;3.40;;;6.90;99.90;;;;;;5070785;28;20497;-85
2022/02/14 08:09:28;;;;;;;5.40;2.70;;;7.20;99.90;;;;;;5075514;28;20477;-86
2022/02/14 08:12:13;;;;;;;4.03;2.20;;;7.40;99.90;;;;;;5071199;28;20448;-86
2022/02/14 08:15:00;;;;;;;8.53;3.07;;;7.70;99.90;;;;;;5072167;28;20508;-85
2022/02/14 08:17:47;;;;;;;6.77;2.50;;;7.90;99.90;;;;;;5072211;28;20607;-86
2022/02/14 08:20:33;;;;;;;8.90;2.80;;;8.00;99.90;;;;;;5074808;28;20440;-85
2022/02/14 08:23:18;;;;;;;7.60;2.80;;;8.10;99.90;;;;;;5071732;28;20473;-84
2022/02/14 08:26:04;;;;;;;8.60;2.37;;;8.60;99.90;;;;;;5073901;28;20444;-84
2022/02/14 08:28:49;;;;;;;6.40;2.20;;;8.90;99.90;;;;;;5072093;28;20469;-86
2022/02/14 08:31:36;;;;;;;4.90;2.07;;;9.30;99.90;;;;;;5072381;28;20925;-84
2022/02/14 08:34:22;;;;;;;6.47;2.67;;;9.50;99.90;;;;;;5075134;28;20438;-85
2022/02/14 08:37:08;;;;;;;5.87;2.40;;;9.60;99.90;;;;;;5076424;28;20466;-85
2022/02/14 08:39:54;;;;;;;7.47;2.30;;;9.70;99.90;;;;;;5072220;28;20559;-85
2022/02/14 08:42:39;;;;;;;6.30;2.70;;;9.90;99.90;;;;;;5068293;28;20517;-84
2022/02/14 08:45:25;;;;;;;3.27;1.90;;;9.90;99.90;;;;;;5070080;28;20445;-84
2022/02/14 08:48:13;;;;;;;7.00;3.03;;;10.00;99.90;;;;;;5067964;28;20465;-85
2022/02/14 08:50:59;;;;;;;7.73;3.90;;;10.00;99.90;;;;;;5066576;28;20450;-85
2022/02/14 08:53:45;;;;;;;9.43;2.00;;;10.10;99.90;;;;;;5068271;28;20461;-84
2022/02/14 08:56:31;;;;;;;5.60;2.67;;;10.20;99.90;;;;;;5070922;28;20465;-85
2022/02/14 08:59:19;;;;;;;6.87;3.17;;;10.20;99.90;;;;;;5073357;28;20454;-85
2022/02/14 09:02:06;;;;;;;7.73;2.93;;;10.20;99.90;;;;;;5069162;28;20440;-85
2022/02/14 09:04:53;;;;;;;8.53;3.00;;;10.20;99.90;;;;;;5062612;28;20468;-85
2022/02/14 09:07:39;;;;;;;3.93;2.10;;;10.20;99.90;;;;;;5066362;28;20812;-86
2022/02/14 09:10:25;;;;;;;5.03;2.30;;;10.20;99.90;;;;;;5067238;28;20450;-85
2022/02/14 09:13:10;;;;;;;6.27;2.00;;;10.20;99.90;;;;;;5066059;28;20424;-85
2022/02/14 09:15:56;;;;;;;4.67;1.87;;;10.20;99.90;;;;;;5070255;28;20797;-86
2022/02/14 09:18:42;;;;;;;3.87;2.10;;;10.30;99.90;;;;;;5069854;28;20494;-85
2022/02/14 09:21:29;;;;;;;3.83;1.70;;;10.20;99.90;;;;;;5063353;28;20453;-86
2022/02/14 09:24:16;;;;;;;9.30;2.67;;;10.20;99.90;;;;;;5069116;28;20570;-85
2022/02/14 09:27:02;;;;;;;3.57;2.03;;;10.30;99.90;;;;;;5072306;28;20572;-85
2022/02/14 09:29:48;;;;;;;6.77;2.80;;;10.30;99.90;;;;;;5068977;28;20977;-85
2022/02/14 09:32:34;;;;;;;7.50;2.40;;;10.40;99.90;;;;;;5067150;28;20581;-85
2022/02/14 09:35:27;;;;;;;7.87;2.13;;;10.40;99.90;;;;;;5071405;28;20453;-85
2022/02/14 09:38:14;;;;;;;11.13;2.37;;;10.40;99.90;;;;;;5065753;28;20466;-85
2022/02/14 09:41:01;;;;;;;5.80;2.43;;;10.40;99.90;;;;;;5067613;28;20482;-86
2022/02/14 09:43:47;;;;;;;4.43;2.10;;;10.40;99.90;;;;;;5067892;28;20461;-85
2022/02/14 09:46:35;;;;;;;8.70;2.90;;;10.40;99.90;;;;;;5071450;28;20584;-86
2022/02/14 09:49:21;;;;;;;9.90;2.97;;;10.50;97.30;;;;;;5069770;28;20437;-85
2022/02/14 09:52:07;;;;;;;8.73;2.13;;;10.60;95.80;;;;;;5064851;28;20421;-85
2022/02/14 09:54:55;;;;;;;6.00;2.63;;;10.60;95.80;;;;;;5072826;28;20424;-86
2022/02/14 09:57:41;;;;;;;11.93;2.87;;;10.60;96.40;;;;;;5069982;28;20580;-86
2022/02/14 10:00:27;;;;;;;3.93;2.23;;;10.70;95.70;;;;;;5071421;28;20417;-85
2022/02/14 10:03:14;;;;;;;11.93;2.77;;;10.70;95.30;;;;;;5069679;28;20454;-85
2022/02/14 10:06:01;;;;;;;5.50;2.73;;;10.80;92.70;;;;;;5067656;28;20428;-85
2022/02/14 10:08:47;;;;;;;4.73;2.27;;;10.90;90.90;;;;;;5063741;28;20432;-85
2022/02/14 10:11:35;;;;;;;8.73;3.10;;;10.90;88.30;;;;;;5068428;28;20454;-83
2022/02/14 10:14:21;;;;;;;18.47;3.00;;;11.10;82.50;;;;;;5070038;28;20437;-85
2022/02/14 10:17:09;;;;;;;7.77;2.60;;;11.20;82.30;;;;;;5068218;28;20575;-86
2022/02/14 10:19:56;;;;;;;9.20;3.20;;;11.20;82.60;;;;;;5066457;28;20528;-85
2022/02/14 10:22:58;;;;;;;11.20;2.57;;;11.30;78.70;;;;;;5070454;28;20433;-86
2022/02/14 10:25:44;;;;;;;7.40;2.70;;;11.40;76.90;;;;;;5068154;28;20582;-85
2022/02/14 10:28:32;;;;;;;7.33;2.63;;;11.50;77.00;;;;;;5072140;28;20442;-83
2022/02/14 10:31:20;;;;;;;12.70;3.20;;;11.60;77.10;;;;;;5070009;28;20450;-86
2022/02/14 10:34:05;;;;;;;9.80;2.70;;;11.80;77.20;;;;;;5068863;28;20425;-85
2022/02/14 10:36:52;;;;;;;14.47;2.80;;;11.90;76.10;;;;;;5059895;28;20510;-85
2022/02/14 10:39:38;;;;;;;5.97;2.80;;;12.20;75.90;;;;;;5063844;28;20458;-83
2022/02/14 10:42:25;;;;;;;5.43;2.10;;;12.40;73.30;;;;;;5070636;28;20404;-83
2022/02/14 10:45:15;;;;;;;7.43;2.47;;;12.40;73.10;;;;;;5069121;28;20425;-83
2022/02/14 10:48:04;;;;;;;7.60;2.60;;;12.40;71.70;;;;;;5070231;28;20449;-85
2022/02/14 10:50:59;;;;;;;17.60;2.90;;;12.30;72.40;;;;;;5066922;28;20425;-86
2022/02/14 10:53:45;;;;;;;8.37;2.40;;;12.20;71.80;;;;;;5065092;28;20459;-86
2022/02/14 10:56:40;;;;;;;8.80;3.00;;;12.20;72.80;;;;;;5068456;28;20982;-85
2022/02/14 10:59:27;;;;;;;8.33;3.57;;;12.10;72.00;;;;;;5068793;28;20467;-85
2022/02/14 11:02:15;;;;;;;7.87;2.47;;;12.10;74.20;;;;;;5065574;28;20502;-86
2022/02/14 11:05:00;;;;;;;3.50;2.30;;;12.20;73.70;;;;;;5068228;28;20472;-85
2022/02/14 11:07:47;;;;;;;5.70;2.10;;;12.10;72.90;;;;;;5069613;28;20503;-86
2022/02/14 11:10:33;;;;;;;7.93;3.53;;;12.10;73.30;;;;;;5055542;28;20555;-84
2022/02/14 11:13:24;;;;;;;5.70;2.63;;;12.10;73.30;;;;;;5076529;28;20420;-85
2022/02/14 11:16:11;;;;;;;6.73;2.60;;;12.20;73.80;;;;;;5072638;28;20522;-86
2022/02/14 11:19:01;;;;;;;10.47;2.80;;;12.30;74.70;;;;;;5073922;28;20445;-86
2022/02/14 11:21:47;;;;;;;8.00;2.57;;;12.30;74.70;;;;;;5074404;28;20946;-85
2022/02/14 11:24:36;;;;;;;5.17;2.37;;;12.20;74.20;;;;;;5068475;28;20393;-85
2022/02/14 11:27:26;;;;;;;7.87;2.60;;;12.20;75.50;;;;;;5069603;28;20408;-85
2022/02/14 11:30:17;;;;;;;5.53;2.40;;;12.20;75.30;;;;;;5068250;28;20436;-85
2022/02/14 11:33:09;;;;;;;5.23;3.13;;;12.10;75.50;;;;;;5073013;28;20976;-86
2022/02/14 11:36:00;;;;;;;4.17;2.60;;;12.10;75.80;;;;;;5063401;28;20540;-86
2022/02/14 11:38:48;;;;;;;11.03;5.33;;;12.20;76.10;;;;;;5067669;28;20465;-85
2022/02/14 11:41:35;;;;;;;7.80;3.83;;;12.20;76.40;;;;;;5071898;28;20445;-85
2022/02/14 11:44:22;;;;;;;7.63;3.00;;;12.10;75.50;;;;;;5069840;28;20409;-85
2022/02/14 11:47:14;;;;;;;11.80;3.30;;;12.10;75.90;;;;;;5069425;28;20440;-85
2022/02/14 11:50:00;;;;;;;6.47;2.80;;;12.10;77.50;;;;;;5069634;28;20548;-85
2022/02/14 11:52:49;;;;;;;13.30;3.67;;;12.00;78.00;;;;;;5071590;28;20472;-85
2022/02/14 11:55:35;;;;;;;8.87;2.70;;;11.90;77.30;;;;;;5072364;28;20416;-85
2022/02/14 11:59:05;;;;;;;11.80;2.90;;;11.80;79.00;;;;;;5071059;28;20537;-86
2022/02/14 12:02:01;;;;;;;11.63;2.87;;;11.70;79.60;;;;;;5067897;28;20446;-86
2022/02/14 12:04:49;;;;;;;7.10;3.40;;;11.70;80.50;;;;;;5068009;28;20942;-86
2022/02/14 12:07:37;;;;;;;8.53;3.20;;;11.60;82.70;;;;;;5066310;28;20438;-86
2022/02/14 12:10:29;;;;;;;9.27;3.53;;;11.60;82.00;;;;;;5068712;28;20466;-85
2022/02/14 12:13:20;;;;;;;7.80;3.40;;;11.50;83.00;;;;;;5070948;28;20890;-85
2022/02/14 12:22:13;;;;;;;6.93;3.70;;;11.40;86.20;;;;;;5071442;28;20417;-85
2022/02/14 12:24:59;;;;;;;11.13;3.87;;;11.50;86.70;;;;;;5071031;28;20489;-85
2022/02/14 12:27:46;;;;;;;9.63;3.60;;;11.50;87.20;;;;;;5070386;28;20438;-85
2022/02/14 12:30:32;;;;;;;10.00;3.30;;;11.50;88.20;;;;;;5070834;28;20496;-86
2022/02/14 12:33:19;;;;;;;8.00;3.37;;;11.60;88.70;;;;;;5071797;28;20450;-85
2022/02/14 12:36:07;;;;;;;10.77;4.57;;;11.70;87.80;;;;;;5073389;28;20483;-86
2022/02/14 12:38:53;;;;;;;8.93;3.50;;;11.80;88.70;;;;;;5070307;28;20566;-85
2022/02/14 12:41:41;;;;;;;9.13;4.10;;;11.80;88.80;;;;;;5064898;28;20779;-86
2022/02/14 12:44:32;;;;;;;7.33;2.63;;;11.90;88.20;;;;;;5069937;28;20406;-83
2022/02/14 12:47:19;;;;;;;9.20;3.30;;;11.90;88.50;;;;;;5069575;28;20443;-83
2022/02/14 12:50:11;;;;;;;6.80;2.90;;;11.90;89.60;;;;;;5066185;28;20471;-85
2022/02/14 12:52:56;;;;;;;10.03;2.47;;;11.90;89.40;;;;;;5065714;28;20841;-85
2022/02/14 12:55:42;;;;;;;6.07;3.50;;;11.90;90.00;;;;;;5064103;28;20429;-85
2022/02/14 12:58:27;;;;;;;6.00;2.60;;;11.90;90.20;;;;;;5073846;28;20490;-85
2022/02/14 13:01:15;;;;;;;4.17;2.73;;;12.00;90.10;;;;;;5071887;28;20528;-83
2022/02/14 13:04:03;;;;;;;7.70;2.70;;;12.00;89.60;;;;;;5071979;28;20408;-85
2022/02/14 13:06:51;;;;;;;6.57;3.47;;;12.10;90.10;;;;;;5071431;28;20405;-86
2022/02/14 13:09:37;;;;;;;11.80;2.90;;;12.10;90.10;;;;;;5069889;28;20462;-86
2022/02/14 13:12:24;;;;;;;6.00;2.70;;;12.10;90.10;;;;;;5065526;28;20420;-86
2022/02/14 13:15:10;;;;;;;6.60;2.73;;;12.10;90.30;;;;;;5067129;28;20453;-85
2022/02/14 13:17:57;;;;;;;5.40;3.13;;;12.10;91.00;;;;;;5067783;28;20485;-85
2022/02/14 13:20:43;;;;;;;9.90;2.90;;;12.10;91.40;;;;;;5069320;28;20424;-85
2022/02/14 13:23:29;;;;;;;4.60;2.60;;;12.20;90.80;;;;;;5065157;28;20408;-85
2022/02/14 13:26:20;;;;;;;6.67;3.00;;;12.20;90.60;;;;;;5068306;28;20959;-85
2022/02/14 13:29:06;;;;;;;9.37;3.63;;;12.20;91.30;;;;;;5067123;28;20499;-85
2022/02/14 13:31:53;;;;;;;7.87;3.27;;;12.20;91.00;;;;;;5065200;28;20503;-85
2022/02/14 13:34:50;;;;;;;10.43;3.97;;;12.20;91.50;;;;;;5067177;28;20904;-86
2022/02/14 13:37:36;;;;;;;6.37;2.70;;;12.20;91.50;;;;;;5059759;28;20537;-85
2022/02/14 13:40:26;;;;;;;5.00;2.60;;;12.20;92.50;;;;;;5065272;28;20475;-85
2022/02/14 13:43:19;;;;;;;5.30;2.13;;;12.20;92.40;;;;;;5065284;28;20446;-86
2022/02/14 13:46:06;;;;;;;6.80;2.93;;;12.20;92.30;;;;;;5070664;28;20475;-86
2022/02/14 13:48:51;;;;;;;7.20;2.67;;;12.30;92.60;;;;;;5069886;28;20450;-85
2022/02/14 13:51:40;;;;;;;5.57;2.53;;;12.30;92.50;;;;;;5061332;28;20419;-85
2022/02/14 13:54:26;;;;;;;5.57;2.70;;;12.30;92.30;;;;;;5072477;28;20421;-85
2022/02/14 13:57:12;;;;;;;5.40;2.10;;;12.40;92.60;;;;;;5067025;28;20545;-85
2022/02/14 13:59:57;;;;;;;7.63;2.60;;;12.40;92.50;;;;;;5068521;28;20491;-85
2022/02/14 14:02:59;;;;;;;6.53;2.70;;;12.30;92.50;;;;;;5064015;28;21005;-86
2022/02/14 14:05:45;;;;;;;6.70;2.30;;;12.30;92.60;;;;;;5070915;28;20481;-85
2022/02/14 14:08:39;;;;;;;6.17;2.00;;;12.30;92.30;;;;;;5071215;28;20426;-85
2022/02/14 14:11:27;;;;;;;6.17;3.20;;;12.30;92.50;;;;;;5064696;28;20449;-86
2022/02/14 14:14:31;;;;;;;4.53;2.20;;;12.30;92.50;;;;;;5067034;28;20816;-85
2022/02/14 14:17:18;;;;;;;5.93;1.93;;;12.30;92.50;;;;;;5068260;28;20442;-85
2022/02/14 14:20:07;;;;;;;8.03;2.63;;;12.30;92.90;;;;;;5067341;28;20464;-85
2022/02/14 14:22:53;;;;;;;4.23;2.27;;;12.20;92.80;;;;;;5058619;28;20501;-86
2022/02/14 14:25:40;;;;;;;7.40;2.83;;;12.20;93.70;;;;;;5069343;28;20487;-86
2022/02/14 14:28:26;;;;;;;6.47;3.13;;;12.20;93.50;;;;;;5067714;28;20803;-85
2022/02/14 14:31:13;;;;;;;4.50;2.53;;;12.20;93.60;;;;;;5062993;28;21144;-86
2022/02/14 14:34:00;;;;;;;3.60;2.33;;;12.10;93.90;;;;;;5066467;28;20421;-85
2022/02/14 14:36:46;;;;;;;7.00;3.13;;;12.10;94.30;;;;;;5064577;28;20486;-86
2022/02/14 14:39:32;;;;;;;10.27;3.67;;;12.00;94.50;;;;;;5064014;28;21055;-85
2022/02/14 14:42:19;;;;;;;7.53;2.80;;;12.00;94.90;;;;;;5061129;28;22520;-86